Time;durP1;ratioP1;P1;durP2;ratioP2;P2;SDS_P1;SDS_P2;PMS_P1;PMS_P2;Temp;Humidity;BMP_temperature;BMP_pressure;BME280_temperature;BME280_humidity;BME280_pressure;Samples;Min_cycle;Max_cycle;Signal;HPM_P1;HPM_P2
2023/09/24 00:01:15;;;;;;;;;;;12.20;99.90;;;;;;4946489;28;19942;-31
2023/09/24 00:03:42;;;;;;;;;;;12.20;99.90;;;;;;4949310;28;20529;-31
2023/09/24 00:06:10;;;;;;;;;;;12.20;99.90;;;;;;4946243;28;19942;-31
2023/09/24 00:08:36;;;;;;;;;;;12.10;99.90;;;;;;4960500;28;19927;-33
2023/09/24 00:11:03;;;;;;;;;;;12.10;99.90;;;;;;4961472;28;19969;-31
2023/09/24 00:13:33;;;;;;;;;;;12.20;99.90;;;;;;4946215;29;19933;-32
2023/09/24 00:16:04;;;;;;;;;;;12.20;99.90;;;;;;4946453;28;19933;-31
2023/09/24 00:18:31;;;;;;;;;;;12.10;99.90;;;;;;4947153;28;20422;-32
2023/09/24 00:20:58;;;;;;;;;;;12.10;99.90;;;;;;4947978;28;20479;-31
2023/09/24 00:23:24;;;;;;;;;;;12.10;99.90;;;;;;4949009;28;19926;-33
2023/09/24 00:25:51;;;;;;;;;;;12.20;99.90;;;;;;4948450;28;20315;-31
2023/09/24 00:28:18;;;;;;;;;;;12.20;99.90;;;;;;4941927;28;19938;-33
2023/09/24 00:30:45;;;;;;;;;;;12.20;99.90;;;;;;4957812;28;19930;-33
2023/09/24 00:33:13;;;;;;;;;;;12.10;99.90;;;;;;4936933;28;19985;-31
2023/09/24 00:35:40;;;;;;;;;;;12.10;99.90;;;;;;4960985;28;19930;-32
2023/09/24 00:38:07;;;;;;;;;;;12.10;99.90;;;;;;4947355;28;20314;-32
2023/09/24 00:40:34;;;;;;;;;;;12.10;99.90;;;;;;4948664;28;20021;-31
2023/09/24 00:43:00;;;;;;;;;;;12.10;99.90;;;;;;4947732;28;19973;-35
2023/09/24 00:45:28;;;;;;;;;;;12.10;99.90;;;;;;4946109;28;19995;-31
2023/09/24 00:47:56;;;;;;;;;;;12.10;99.90;;;;;;4954164;28;19973;-31
2023/09/24 00:50:24;;;;;;;;;;;12.10;99.90;;;;;;4966518;28;19997;-31
2023/09/24 00:52:51;;;;;;;;;;;12.10;99.90;;;;;;4966508;28;20443;-31
2023/09/24 00:55:18;;;;;;;;;;;12.00;99.90;;;;;;4964976;28;20001;-31
2023/09/24 00:57:44;;;;;;;;;;;12.00;99.90;;;;;;4966667;28;19927;-31
2023/09/24 01:00:17;;;;;;;;;;;12.00;99.90;;;;;;4963103;28;20111;-31
2023/09/24 01:02:46;;;;;;;;;;;12.00;99.90;;;;;;4961212;28;20322;-31
2023/09/24 01:05:14;;;;;;;;;;;12.00;99.90;;;;;;4954164;28;19981;-31
2023/09/24 01:07:42;;;;;;;;;;;12.00;99.90;;;;;;4967274;28;19933;-31
2023/09/24 01:10:11;;;;;;;;;;;12.00;99.90;;;;;;4964744;28;20024;-32
2023/09/24 01:12:39;;;;;;;;;;;12.00;99.90;;;;;;4964921;28;20040;-31
2023/09/24 01:15:08;;;;;;;;;;;12.00;99.90;;;;;;4963039;28;19926;-31
2023/09/24 01:17:36;;;;;;;;;;;12.00;99.90;;;;;;4965115;28;19934;-31
2023/09/24 01:20:05;;;;;;;;;;;12.00;99.90;;;;;;4966976;28;19940;-29
2023/09/24 01:22:36;;;;;;;;;;;12.00;99.90;;;;;;4964949;28;20322;-31
2023/09/24 01:25:03;;;;;;;;;;;12.00;99.90;;;;;;4966565;28;19948;-31
2023/09/24 01:27:30;;;;;;;;;;;12.00;99.90;;;;;;4949418;28;19973;-30
2023/09/24 01:29:57;;;;;;;;;;;12.00;99.90;;;;;;4966928;28;19926;-31
2023/09/24 01:32:24;;;;;;;;;;;12.00;99.90;;;;;;4965953;28;20353;-31
2023/09/24 01:34:51;;;;;;;;;;;12.00;99.90;;;;;;4949943;28;19934;-31
2023/09/24 01:37:18;;;;;;;;;;;12.00;99.90;;;;;;4966711;28;19945;-32
2023/09/24 01:39:47;;;;;;;;;;;12.00;99.90;;;;;;4966696;28;19929;-31
2023/09/24 01:42:14;;;;;;;;;;;12.00;99.90;;;;;;4964780;28;19981;-32
2023/09/24 01:44:41;;;;;;;;;;;12.00;99.90;;;;;;4967339;28;19932;-32
2023/09/24 01:47:08;;;;;;;;;;;11.90;99.90;;;;;;4963796;28;19926;-31
2023/09/24 01:49:34;;;;;;;;;;;11.90;99.90;;;;;;4966979;28;20028;-31
2023/09/24 01:52:05;;;;;;;;;;;12.00;99.90;;;;;;4948002;28;19981;-30
2023/09/24 01:54:31;;;;;;;;;;;11.90;99.90;;;;;;4964860;28;20024;-31
2023/09/24 01:56:59;;;;;;;;;;;12.00;99.90;;;;;;4963818;28;19984;-31
2023/09/24 01:59:27;;;;;;;;;;;12.00;99.90;;;;;;4968830;28;20287;-31
2023/09/24 02:01:53;;;;;;;;;;;12.00;99.90;;;;;;4964572;28;19934;-31
2023/09/24 02:04:20;;;;;;;;;;;12.00;99.90;;;;;;4965373;28;19926;-30
2023/09/24 02:06:47;;;;;;;;;;;12.00;99.90;;;;;;4951875;28;20349;-32
2023/09/24 02:09:15;;;;;;;;;;;12.00;99.90;;;;;;4966005;28;19970;-31
2023/09/24 02:11:42;;;;;;;;;;;12.00;99.90;;;;;;4965953;28;20450;-32
2023/09/24 02:14:10;;;;;;;;;;;12.00;99.90;;;;;;4962940;28;20438;-31
2023/09/24 02:16:38;;;;;;;;;;;11.90;99.90;;;;;;4947117;28;20471;-32
2023/09/24 02:19:06;;;;;;;;;;;11.90;99.90;;;;;;4963849;28;19969;-30
2023/09/24 02:21:32;;;;;;;;;;;11.90;99.90;;;;;;4963667;28;20314;-32
2023/09/24 02:23:59;;;;;;;;;;;11.90;99.90;;;;;;4966036;28;20417;-32
2023/09/24 02:26:26;;;;;;;;;;;11.80;99.90;;;;;;4949210;28;19926;-31
2023/09/24 02:28:53;;;;;;;;;;;11.80;99.90;;;;;;4965540;28;19934;-32
2023/09/24 02:31:21;;;;;;;;;;;11.80;99.90;;;;;;4946878;28;19926;-31
2023/09/24 02:33:48;;;;;;;;;;;11.80;99.90;;;;;;4964397;28;19926;-31
2023/09/24 02:36:15;;;;;;;;;;;11.80;99.90;;;;;;4964983;28;19930;-31
2023/09/24 02:38:41;;;;;;;;;;;11.70;99.90;;;;;;4966026;28;20331;-31
2023/09/24 02:41:08;;;;;;;;;;;11.70;99.90;;;;;;4963611;28;19930;-31
2023/09/24 02:43:36;;;;;;;;;;;11.70;99.90;;;;;;4965761;28;19981;-32
2023/09/24 02:46:03;;;;;;;;;;;11.70;99.90;;;;;;4966701;28;20025;-30
2023/09/24 02:48:32;;;;;;;;;;;11.70;99.90;;;;;;4962951;28;19932;-31
2023/09/24 02:51:05;;;;;;;;;;;11.60;99.90;;;;;;4962371;28;20025;-31
2023/09/24 02:53:32;;;;;;;;;;;11.60;99.90;;;;;;4963436;28;19940;-31
2023/09/24 02:55:59;;;;;;;;;;;11.60;99.90;;;;;;4962263;28;19981;-31
2023/09/24 02:58:25;;;;;;;;;;;11.60;99.90;;;;;;4967096;28;20326;-31
2023/09/24 03:00:52;;;;;;;;;;;11.50;99.90;;;;;;4966426;28;20010;-31
2023/09/24 03:03:19;;;;;;;;;;;11.50;99.90;;;;;;4968675;28;20409;-31
2023/09/24 03:05:48;;;;;;;;;;;11.50;99.90;;;;;;4967962;28;20433;-32
2023/09/24 03:08:15;;;;;;;;;;;11.50;99.90;;;;;;4951667;28;19930;-32
2023/09/24 03:10:42;;;;;;;;;;;11.50;99.90;;;;;;4968670;28;20044;-31
2023/09/24 03:13:09;;;;;;;;;;;11.50;99.90;;;;;;4970046;28;19926;-31
2023/09/24 03:15:36;;;;;;;;;;;11.40;99.90;;;;;;4968416;28;20048;-31
2023/09/24 03:18:03;;;;;;;;;;;11.40;99.90;;;;;;4949852;28;19941;-32
2023/09/24 03:20:30;;;;;;;;;;;11.40;99.90;;;;;;4967645;28;20370;-30
2023/09/24 03:23:02;;;;;;;;;;;11.40;99.90;;;;;;4969925;28;20016;-32
2023/09/24 03:25:29;;;;;;;;;;;11.40;99.90;;;;;;4939760;28;19973;-32
2023/09/24 03:27:56;;;;;;;;;;;11.30;99.90;;;;;;4969307;28;20350;-31
2023/09/24 03:30:23;;;;;;;;;;;11.30;99.90;;;;;;4966444;28;19933;-31
2023/09/24 03:32:50;;;;;;;;;;;11.30;99.90;;;;;;4938707;28;19981;-31
2023/09/24 03:35:19;;;;;;;;;;;11.30;99.90;;;;;;4970008;28;19933;-31
2023/09/24 03:37:45;;;;;;;;;;;11.30;99.90;;;;;;4968909;28;19934;-31
2023/09/24 03:40:15;;;;;;;;;;;11.20;99.90;;;;;;4969293;28;19981;-32
2023/09/24 03:42:41;;;;;;;;;;;11.20;99.90;;;;;;4968688;28;20008;-30
2023/09/24 03:45:09;;;;;;;;;;;11.20;99.90;;;;;;4968247;28;19969;-30
2023/09/24 03:47:36;;;;;;;;;;;11.20;99.90;;;;;;4954039;28;19933;-32
2023/09/24 03:50:03;;;;;;;;;;;11.20;99.90;;;;;;4967912;28;19926;-32
2023/09/24 03:52:30;;;;;;;;;;;11.10;99.90;;;;;;4952560;28;20021;-31
2023/09/24 03:54:59;;;;;;;;;;;11.10;99.90;;;;;;4968306;28;19930;-31
2023/09/24 03:57:28;;;;;;;;;;;11.10;99.90;;;;;;4967958;28;19926;-30
2023/09/24 03:59:55;;;;;;;;;;;11.10;99.90;;;;;;4966703;28;20426;-32
2023/09/24 04:02:22;;;;;;;;;;;11.10;99.90;;;;;;4966794;28;20013;-30
2023/09/24 04:04:48;;;;;;;;;;;11.00;99.90;;;;;;4964654;28;20215;-31
2023/09/24 04:07:15;;;;;;;;;;;11.00;99.90;;;;;;4968603;28;19977;-31
2023/09/24 04:09:42;;;;;;;;;;;11.00;99.90;;;;;;4954147;28;19961;-30
2023/09/24 04:12:09;;;;;;;;;;;11.00;99.90;;;;;;4965605;28;19980;-30
2023/09/24 04:14:37;;;;;;;;;;;10.90;99.90;;;;;;4966238;28;20016;-31
2023/09/24 04:17:03;;;;;;;;;;;10.90;99.90;;;;;;4970170;28;19985;-32
2023/09/24 04:19:30;;;;;;;;;;;10.90;99.90;;;;;;4966441;28;20293;-31
2023/09/24 04:21:57;;;;;;;;;;;10.90;99.90;;;;;;4966947;28;19933;-32
2023/09/24 04:24:24;;;;;;;;;;;10.90;99.90;;;;;;4965848;28;19926;-31
2023/09/24 04:26:52;;;;;;;;;;;10.80;99.90;;;;;;4967888;28;20009;-31
2023/09/24 04:29:19;;;;;;;;;;;10.80;99.90;;;;;;4965680;28;19937;-30
2023/09/24 04:31:47;;;;;;;;;;;10.80;99.90;;;;;;4967458;28;19931;-31
2023/09/24 04:34:14;;;;;;;;;;;10.80;99.90;;;;;;4966870;28;20005;-31
2023/09/24 04:36:41;;;;;;;;;;;10.80;99.90;;;;;;4966538;28;20398;-31
2023/09/24 04:39:09;;;;;;;;;;;10.70;99.90;;;;;;4967087;28;20416;-30
2023/09/24 04:41:36;;;;;;;;;;;10.80;99.90;;;;;;4963843;28;20013;-32
2023/09/24 04:44:03;;;;;;;;;;;10.70;99.90;;;;;;4962408;28;19989;-31
2023/09/24 04:46:30;;;;;;;;;;;10.60;99.90;;;;;;4967362;28;19938;-30
2023/09/24 04:48:58;;;;;;;;;;;10.70;99.90;;;;;;4967270;28;19933;-31
2023/09/24 04:51:25;;;;;;;;;;;10.70;99.90;;;;;;4946651;28;19966;-31
2023/09/24 04:53:52;;;;;;;;;;;10.70;99.90;;;;;;4966629;28;19988;-32
2023/09/24 04:56:18;;;;;;;;;;;10.70;99.90;;;;;;4967827;28;19932;-31
2023/09/24 04:58:45;;;;;;;;;;;10.70;99.90;;;;;;4966519;28;20024;-31
2023/09/24 05:01:12;;;;;;;;;;;10.60;99.90;;;;;;4965484;28;19933;-31
2023/09/24 05:03:39;;;;;;;;;;;10.60;99.90;;;;;;4967931;28;20587;-31
2023/09/24 05:06:07;;;;;;;;;;;10.60;99.90;;;;;;4966419;28;19993;-30
2023/09/24 05:08:34;;;;;;;;;;;10.60;99.90;;;;;;4951807;28;20369;-31
2023/09/24 05:11:02;;;;;;;;;;;10.60;99.90;;;;;;4964952;28;19926;-30
2023/09/24 05:13:29;;;;;;;;;;;10.60;99.90;;;;;;4948749;28;19941;-31
2023/09/24 05:16:00;;;;;;;;;;;10.60;99.90;;;;;;4949127;28;19926;-31
2023/09/24 05:18:26;;;;;;;;;;;10.50;99.90;;;;;;4967387;28;20005;-31
2023/09/24 05:20:53;;;;;;;;;;;10.50;99.90;;;;;;4946394;28;20013;-32
2023/09/24 05:23:21;;;;;;;;;;;10.50;99.90;;;;;;4949904;28;19926;-32
2023/09/24 05:25:48;;;;;;;;;;;10.50;99.90;;;;;;4950160;28;20371;-31
2023/09/24 05:28:14;;;;;;;;;;;10.50;99.90;;;;;;4967434;28;20294;-31
2023/09/24 05:30:41;;;;;;;;;;;10.40;99.90;;;;;;4966263;28;19937;-30
2023/09/24 05:33:08;;;;;;;;;;;10.50;99.90;;;;;;4966978;28;19926;-31
2023/09/24 05:35:34;;;;;;;;;;;10.50;99.90;;;;;;4965718;28;19926;-33
2023/09/24 05:38:01;;;;;;;;;;;10.40;99.90;;;;;;4967492;28;19978;-33
2023/09/24 05:40:29;;;;;;;;;;;10.40;99.90;;;;;;4949023;28;19992;-30
2023/09/24 05:42:56;;;;;;;;;;;10.40;99.90;;;;;;4965904;28;20342;-31
2023/09/24 05:45:22;;;;;;;;;;;10.40;99.90;;;;;;4966703;28;19926;-31
2023/09/24 05:47:49;;;;;;;;;;;10.40;99.90;;;;;;4967076;28;19981;-31
2023/09/24 05:50:16;;;;;;;;;;;10.40;99.90;;;;;;4966619;28;19930;-32
2023/09/24 05:52:42;;;;;;;;;;;10.40;99.90;;;;;;4964782;28;19933;-31
2023/09/24 05:55:09;;;;;;;;;;;10.40;99.90;;;;;;4964672;28;19935;-30
2023/09/24 05:57:37;;;;;;;;;;;10.40;99.90;;;;;;4966219;28;19981;-31
2023/09/24 06:00:05;;;;;;;;;;;10.40;99.90;;;;;;4948644;28;19934;-32
2023/09/24 06:02:31;;;;;;;;;;;10.40;99.90;;;;;;4966856;28;19937;-31
2023/09/24 06:04:58;;;;;;;;;;;10.40;99.90;;;;;;4966215;28;19934;-30
2023/09/24 06:07:28;;;;;;;;;;;10.40;99.90;;;;;;4964354;28;20024;-30
2023/09/24 06:09:55;;;;;;;;;;;10.40;99.90;;;;;;4963306;28;20376;-31
2023/09/24 06:12:22;;;;;;;;;;;10.40;99.90;;;;;;4966607;28;19933;-31
2023/09/24 06:14:50;;;;;;;;;;;10.40;99.90;;;;;;4966887;28;20386;-32
2023/09/24 06:17:16;;;;;;;;;;;10.40;99.90;;;;;;4967084;28;19981;-31
2023/09/24 06:19:43;;;;;;;;;;;10.50;99.90;;;;;;4965055;28;19930;-31
2023/09/24 06:22:10;;;;;;;;;;;10.50;99.90;;;;;;4950368;28;19933;-32
2023/09/24 06:24:36;;;;;;;;;;;10.50;99.90;;;;;;4966086;28;19930;-31
2023/09/24 06:27:04;;;;;;;;;;;10.50;99.90;;;;;;4964920;28;19967;-31
2023/09/24 06:29:31;;;;;;;;;;;10.50;99.90;;;;;;4947088;28;19930;-31
2023/09/24 06:31:59;;;;;;;;;;;10.50;99.90;;;;;;4947598;28;19930;-32
2023/09/24 06:34:26;;;;;;;;;;;10.60;99.90;;;;;;4969727;28;19930;-31
2023/09/24 06:36:52;;;;;;;;;;;10.60;99.90;;;;;;4969522;28;19937;-31
2023/09/24 06:39:19;;;;;;;;;;;10.60;99.90;;;;;;4968157;28;19937;-30
2023/09/24 06:41:46;;;;;;;;;;;10.70;99.90;;;;;;4968875;28;19930;-31
2023/09/24 06:44:14;;;;;;;;;;;10.80;99.90;;;;;;4968949;28;19981;-32
2023/09/24 06:46:41;;;;;;;;;;;10.80;99.90;;;;;;4963911;28;20363;-31
2023/09/24 06:49:09;;;;;;;;;;;10.90;99.90;;;;;;4966437;28;19933;-32
2023/09/24 06:51:35;;;;;;;;;;;10.90;99.90;;;;;;4950081;28;20391;-31
2023/09/24 06:54:02;;;;;;;;;;;11.00;99.90;;;;;;4968029;28;20309;-30
2023/09/24 06:56:29;;;;;;;;;;;11.10;99.90;;;;;;4965854;28;19930;-32
2023/09/24 06:58:55;;;;;;;;;;;11.10;99.90;;;;;;4967743;28;19989;-31
2023/09/24 07:01:22;;;;;;;;;;;11.20;99.90;;;;;;4964742;28;20362;-30
2023/09/24 07:03:49;;;;;;;;;;;11.30;99.90;;;;;;4967940;28;20005;-31
2023/09/24 07:06:17;;;;;;;;;;;11.30;99.90;;;;;;4968046;28;19930;-30
2023/09/24 07:08:44;;;;;;;;;;;11.40;99.90;;;;;;4966890;28;20036;-30
2023/09/24 07:11:24;;;;;;;;;;;11.50;99.90;;;;;;4964396;28;20016;-31
2023/09/24 07:13:50;;;;;;;;;;;11.50;99.90;;;;;;4968751;28;19931;-30
2023/09/24 07:16:19;;;;;;;;;;;11.60;99.90;;;;;;4956545;28;20387;-32
2023/09/24 07:18:46;;;;;;;;;;;11.60;99.90;;;;;;4968160;28;20362;-30
2023/09/24 07:21:13;;;;;;;;;;;11.70;99.90;;;;;;4950137;28;20005;-31
2023/09/24 07:23:41;;;;;;;;;;;11.80;99.90;;;;;;4967398;28;19930;-32
2023/09/24 07:26:08;;;;;;;;;;;11.90;99.90;;;;;;4944664;28;19989;-32
2023/09/24 07:28:35;;;;;;;;;;;12.00;99.90;;;;;;4967845;28;19934;-31
2023/09/24 07:31:02;;;;;;;;;;;12.10;99.90;;;;;;4950021;28;19947;-31
2023/09/24 07:33:28;;;;;;;;;;;12.20;99.90;;;;;;4969904;28;19933;-33
2023/09/24 07:35:55;;;;;;;;;;;12.30;99.90;;;;;;4967583;28;20276;-31
2023/09/24 07:38:22;;;;;;;;;;;12.40;99.90;;;;;;4950244;28;20051;-31
2023/09/24 07:40:50;;;;;;;;;;;12.50;99.90;;;;;;4949874;28;19927;-30
2023/09/24 07:43:16;;;;;;;;;;;12.60;99.90;;;;;;4968408;28;19930;-31
2023/09/24 07:45:43;;;;;;;;;;;12.60;99.90;;;;;;4963816;28;19933;-31
2023/09/24 07:48:13;;;;;;;;;;;12.70;99.90;;;;;;4948570;28;19930;-30
2023/09/24 07:50:40;;;;;;;;;;;12.80;99.90;;;;;;4947286;28;20331;-30
2023/09/24 07:53:09;;;;;;;;;;;12.90;99.90;;;;;;4946805;28;20005;-30
2023/09/24 07:55:36;;;;;;;;;;;13.00;99.90;;;;;;4945275;28;20123;-31
2023/09/24 07:58:06;;;;;;;;;;;13.10;99.90;;;;;;4947081;28;19941;-31
2023/09/24 08:00:32;;;;;;;;;;;13.20;99.90;;;;;;4945200;28;19934;-32
2023/09/24 08:03:00;;;;;;;;;;;13.30;99.90;;;;;;4947888;28;19931;-31
2023/09/24 08:05:27;;;;;;;;;;;13.30;99.90;;;;;;4961487;28;20013;-31
2023/09/24 08:07:53;;;;;;;;;;;13.40;99.90;;;;;;4963315;28;19926;-32
2023/09/24 08:10:20;;;;;;;;;;;13.50;99.90;;;;;;4947636;28;19926;-31
2023/09/24 08:12:46;;;;;;;;;;;13.60;99.90;;;;;;4945621;28;19934;-32
2023/09/24 08:15:14;;;;;;;;;;;13.70;99.90;;;;;;4948109;28;19981;-31
2023/09/24 08:17:41;;;;;;;;;;;13.80;99.90;;;;;;4947682;28;20326;-31
2023/09/24 08:20:08;;;;;;;;;;;13.90;99.90;;;;;;4949131;28;20372;-32
2023/09/24 08:22:35;;;;;;;;;;;14.00;99.90;;;;;;4946390;28;19997;-31
2023/09/24 08:25:02;;;;;;;;;;;14.20;99.90;;;;;;4947969;28;19982;-31
2023/09/24 08:27:29;;;;;;;;;;;14.30;99.90;;;;;;4936810;28;19930;-31
2023/09/24 08:29:55;;;;;;;;;;;14.40;99.90;;;;;;4947031;28;19978;-32
2023/09/24 08:32:23;;;;;;;;;;;14.50;99.90;;;;;;4961147;28;19989;-30
2023/09/24 08:34:50;;;;;;;;;;;14.60;99.90;;;;;;4962756;28;19931;-32
2023/09/24 08:37:17;;;;;;;;;;;14.70;99.90;;;;;;4945061;28;20045;-32
2023/09/24 08:39:43;;;;;;;;;;;14.70;99.90;;;;;;4947698;28;19982;-31
2023/09/24 08:42:11;;;;;;;;;;;14.80;99.90;;;;;;4948085;28;19934;-31
2023/09/24 08:44:38;;;;;;;;;;;14.90;99.90;;;;;;4950164;28;20351;-30
2023/09/24 08:47:05;;;;;;;;;;;15.00;99.90;;;;;;4943317;28;19927;-32
2023/09/24 08:49:33;;;;;;;;;;;15.10;99.90;;;;;;4965680;28;20313;-30
2023/09/24 08:52:00;;;;;;;;;;;15.20;99.90;;;;;;4947333;28;19930;-31
2023/09/24 08:54:27;;;;;;;;;;;15.30;99.90;;;;;;4963051;28;19930;-31
2023/09/24 08:56:53;;;;;;;;;;;15.30;99.90;;;;;;4963570;28;19981;-31
2023/09/24 08:59:20;;;;;;;;;;;15.40;99.90;;;;;;4965622;28;19934;-32
2023/09/24 09:01:52;;;;;;;;;;;15.40;99.90;;;;;;4965435;28;19981;-31
2023/09/24 09:04:19;;;;;;;;;;;15.50;99.90;;;;;;4964362;28;20298;-31
2023/09/24 09:06:47;;;;;;;;;;;15.60;99.90;;;;;;4962724;28;19934;-30
2023/09/24 09:09:23;;;;;;;;;;;15.70;99.90;;;;;;4963984;28;20009;-32
2023/09/24 09:11:50;;;;;;;;;;;15.80;99.90;;;;;;4950516;28;19926;-30
2023/09/24 09:14:17;;;;;;;;;;;15.90;99.90;;;;;;4966204;28;20032;-31
2023/09/24 09:16:53;;;;;;;;;;;15.90;99.90;;;;;;4965236;28;19927;-31
2023/09/24 09:19:20;;;;;;;;;;;15.90;99.90;;;;;;4964557;28;19997;-31
2023/09/24 09:21:48;;;;;;;;;;;16.00;99.90;;;;;;4967182;28;20387;-31
2023/09/24 09:24:19;;;;;;;;;;;16.00;99.90;;;;;;4965579;28;20001;-32
2023/09/24 09:26:47;;;;;;;;;;;16.20;99.90;;;;;;4967422;28;19926;-31
2023/09/24 09:29:20;;;;;;;;;;;16.30;99.90;;;;;;4964909;28;19934;-31
2023/09/24 09:31:48;;;;;;;;;;;16.40;99.90;;;;;;4966465;28;19934;-31
2023/09/24 09:34:14;;;;;;;;;;;16.50;99.90;;;;;;4963200;28;20325;-31
2023/09/24 09:36:41;;;;;;;;;;;16.60;99.90;;;;;;4956575;28;19930;-30
2023/09/24 09:39:09;;;;;;;;;;;16.70;99.90;;;;;;4966460;28;20008;-33
2023/09/24 09:41:36;;;;;;;;;;;16.80;99.90;;;;;;4964511;28;19926;-32
2023/09/24 09:44:06;;;;;;;;;;;16.90;99.90;;;;;;4966057;28;19985;-32
2023/09/24 09:46:34;;;;;;;;;;;17.00;99.90;;;;;;4944957;28;19938;-30
2023/09/24 09:49:02;;;;;;;;;;;17.00;99.90;;;;;;4943418;28;19932;-31
2023/09/24 09:51:29;;;;;;;;;;;17.00;99.90;;;;;;4947293;28;19930;-33
2023/09/24 09:53:56;;;;;;;;;;;17.10;99.90;;;;;;4946069;28;19930;-31
2023/09/24 09:56:24;;;;;;;;;;;17.00;99.90;;;;;;4946564;28;19982;-30
2023/09/24 09:58:51;;;;;;;;;;;17.00;99.90;;;;;;4943765;28;21306;-30
2023/09/24 10:01:20;;;;;;;;;;;17.10;99.90;;;;;;4945909;28;19931;-31
2023/09/24 10:03:47;;;;;;;;;;;17.20;99.90;;;;;;4944104;28;20414;-32
2023/09/24 10:06:14;;;;;;;;;;;17.20;99.90;;;;;;4941507;28;20033;-30
2023/09/24 10:08:40;;;;;;;;;;;17.20;99.90;;;;;;4943853;28;20033;-31
2023/09/24 10:11:07;;;;;;;;;;;17.30;99.90;;;;;;4946517;28;20001;-31
2023/09/24 10:13:47;;;;;;;;;;;17.30;99.90;;;;;;4965804;28;20062;-33
2023/09/24 10:16:29;;;;;;;;;;;17.30;99.90;;;;;;4946053;28;19939;-30
2023/09/24 10:18:56;;;;;;;;;;;17.20;99.90;;;;;;4945564;28;19977;-32
2023/09/24 10:21:27;;;;;;;;;;;17.30;99.90;;;;;;4956875;28;19930;-31
2023/09/24 10:23:54;;;;;;;;;;;17.40;99.90;;;;;;4949358;28;19944;-32
2023/09/24 10:26:35;;;;;;;;;;;17.50;99.90;;;;;;4948168;28;19935;-31
2023/09/24 10:29:03;;;;;;;;;;;17.60;99.90;;;;;;4958934;28;20684;-32
2023/09/24 10:31:32;;;;;;;;;;;17.70;99.90;;;;;;4943925;28;19927;-31
2023/09/24 10:33:59;;;;;;;;;;;17.80;99.90;;;;;;4943379;28;19937;-31
2023/09/24 10:36:29;;;;;;;;;;;17.80;99.90;;;;;;4946084;28;19986;-31
2023/09/24 10:39:07;;;;;;;;;;;17.90;99.90;;;;;;4961763;28;19933;-32
2023/09/24 10:41:34;;;;;;;;;;;18.00;99.90;;;;;;4944848;28;19990;-31
2023/09/24 10:44:19;;;;;;;;;;;18.10;99.90;;;;;;4943261;28;19933;-30
2023/09/24 10:46:47;;;;;;;;;;;18.10;99.90;;;;;;4958986;28;19931;-31
2023/09/24 10:49:17;;;;;;;;;;;18.20;99.90;;;;;;4960181;28;19931;-31
2023/09/24 10:51:44;;;;;;;;;;;18.30;99.90;;;;;;4942862;28;19938;-31
2023/09/24 10:54:11;;;;;;;;;;;18.40;99.90;;;;;;4945875;28;20911;-30
2023/09/24 10:56:38;;;;;;;;;;;18.50;99.90;;;;;;4946070;28;19926;-30
2023/09/24 10:59:05;;;;;;;;;;;18.50;99.90;;;;;;4962666;28;20093;-31
2023/09/24 11:01:31;;;;;;;;;;;18.50;99.90;;;;;;4943647;28;19985;-31
2023/09/24 11:03:59;;;;;;;;;;;18.50;99.90;;;;;;4943941;28;19937;-31
2023/09/24 11:06:29;;;;;;;;;;;18.60;99.90;;;;;;4963237;28;19930;-32
2023/09/24 11:09:08;;;;;;;;;;;18.60;99.90;;;;;;4948615;28;20398;-31
2023/09/24 11:11:34;;;;;;;;;;;18.60;99.90;;;;;;4947238;28;20375;-31
2023/09/24 11:14:12;;;;;;;;;;;18.50;99.90;;;;;;4949761;28;20623;-30
2023/09/24 11:16:39;;;;;;;;;;;18.60;99.90;;;;;;4947633;28;20383;-32
2023/09/24 11:19:07;;;;;;;;;;;18.70;99.90;;;;;;4952383;28;19970;-31
2023/09/24 11:21:34;;;;;;;;;;;18.80;99.90;;;;;;4945807;28;19990;-30
2023/09/24 11:24:00;;;;;;;;;;;18.80;99.90;;;;;;4958282;28;19935;-31
2023/09/24 11:26:30;;;;;;;;;;;18.90;99.90;;;;;;4965208;28;19982;-31
2023/09/24 11:28:57;;;;;;;;;;;19.00;99.90;;;;;;4951170;28;19954;-31
2023/09/24 11:31:24;;;;;;;;;;;19.10;99.90;;;;;;4946976;28;19933;-34
2023/09/24 11:33:54;;;;;;;;;;;19.00;99.90;;;;;;4948392;28;20375;-31
2023/09/24 11:36:28;;;;;;;;;;;19.00;99.90;;;;;;4949168;28;19978;-34
2023/09/24 11:38:59;;;;;;;;;;;19.10;99.90;;;;;;4945442;28;20375;-32
2023/09/24 11:41:26;;;;;;;;;;;19.20;99.90;;;;;;4959773;28;19931;-32
2023/09/24 11:43:55;;;;;;;;;;;19.40;99.90;;;;;;4962737;28;19985;-32
2023/09/24 11:46:25;;;;;;;;;;;19.40;99.90;;;;;;4947115;28;19982;-32
2023/09/24 11:48:54;;;;;;;;;;;19.60;99.90;;;;;;4963276;28;19928;-31
2023/09/24 11:51:23;;;;;;;;;;;19.60;99.90;;;;;;4958619;28;19969;-32
2023/09/24 11:53:49;;;;;;;;;;;19.70;99.90;;;;;;4943131;28;19934;-32
2023/09/24 11:56:17;;;;;;;;;;;19.70;99.90;;;;;;4943825;28;19926;-32
2023/09/24 11:58:43;;;;;;;;;;;19.80;99.90;;;;;;4944831;28;19939;-31
2023/09/24 12:01:10;;;;;;;;;;;19.90;99.90;;;;;;4969967;28;19937;-32
2023/09/24 12:03:37;;;;;;;;;;;19.90;99.90;;;;;;4954957;29;20441;-32
2023/09/24 12:06:04;;;;;;;;;;;19.90;99.90;;;;;;4955468;29;19930;-31
2023/09/24 12:08:32;;;;;;;;;;;19.90;99.90;;;;;;4951621;28;20450;-31
2023/09/24 12:10:58;;;;;;;;;;;19.90;99.90;;;;;;4968685;28;19927;-31
2023/09/24 12:13:25;;;;;;;;;;;20.00;99.90;;;;;;4954698;29;19993;-32
2023/09/24 12:15:52;;;;;;;;;;;20.00;99.90;;;;;;4955219;29;20442;-31
2023/09/24 12:18:18;;;;;;;;;;;20.20;99.90;;;;;;4953662;28;19930;-31
2023/09/24 12:20:45;;;;;;;;;;;20.30;99.90;;;;;;4970679;28;20005;-31
2023/09/24 12:23:12;;;;;;;;;;;20.30;99.90;;;;;;4955886;28;20622;-32
2023/09/24 12:25:40;;;;;;;;;;;20.40;99.90;;;;;;4954167;28;20005;-31
2023/09/24 12:28:07;;;;;;;;;;;20.40;99.00;;;;;;4955686;29;19926;-30
2023/09/24 12:30:34;;;;;;;;;;;20.40;98.40;;;;;;4954051;28;19927;-31
2023/09/24 12:33:01;;;;;;;;;;;20.40;99.50;;;;;;4954219;29;20074;-31
2023/09/24 12:35:28;;;;;;;;;;;20.30;98.00;;;;;;4969589;28;19927;-31
2023/09/24 12:37:54;;;;;;;;;;;20.10;97.80;;;;;;4970482;28;19927;-31
2023/09/24 12:40:21;;;;;;;;;;;20.00;98.00;;;;;;4954474;29;19927;-31
2023/09/24 12:42:49;;;;;;;;;;;19.90;99.80;;;;;;4954623;28;20044;-31
2023/09/24 12:45:17;;;;;;;;;;;19.80;99.90;;;;;;4953508;29;20272;-31
2023/09/24 12:47:43;;;;;;;;;;;19.80;99.90;;;;;;4956015;28;19927;-31
2023/09/24 12:50:11;;;;;;;;;;;19.80;99.70;;;;;;4974695;28;19937;-31
2023/09/24 12:52:38;;;;;;;;;;;19.80;99.60;;;;;;4974352;28;20371;-31
2023/09/24 12:55:06;;;;;;;;;;;19.90;99.90;;;;;;4973520;28;19926;-32
2023/09/24 12:57:33;;;;;;;;;;;20.00;99.90;;;;;;4973228;28;19933;-31
2023/09/24 13:00:01;;;;;;;;;;;20.10;97.80;;;;;;4974400;28;20291;-32
2023/09/24 13:02:27;;;;;;;;;;;20.10;98.20;;;;;;4974165;28;19930;-31
2023/09/24 13:04:54;;;;;;;;;;;20.00;99.80;;;;;;4973439;28;20379;-32
2023/09/24 13:07:21;;;;;;;;;;;20.10;99.90;;;;;;4971401;28;20355;-31
2023/09/24 13:09:47;;;;;;;;;;;20.30;99.90;;;;;;4973151;28;19948;-32
2023/09/24 13:12:15;;;;;;;;;;;20.40;99.40;;;;;;4974067;28;20383;-30
2023/09/24 13:14:42;;;;;;;;;;;20.30;99.50;;;;;;4972469;28;19926;-31
2023/09/24 13:17:10;;;;;;;;;;;20.40;98.20;;;;;;4971205;28;19926;-31
2023/09/24 13:19:36;;;;;;;;;;;20.40;97.20;;;;;;4970911;28;19973;-31
2023/09/24 13:22:03;;;;;;;;;;;20.30;97.60;;;;;;4973935;28;19926;-31
2023/09/24 13:24:30;;;;;;;;;;;20.50;98.70;;;;;;4972550;28;20286;-31
2023/09/24 13:26:56;;;;;;;;;;;20.60;98.80;;;;;;4972892;28;19933;-31
2023/09/24 13:29:24;;;;;;;;;;;20.70;97.00;;;;;;4973498;28;19980;-32
2023/09/24 13:31:50;;;;;;;;;;;20.80;98.90;;;;;;4971162;28;19934;-31
2023/09/24 13:34:24;;;;;;;;;;;20.90;99.00;;;;;;4972991;28;19969;-32
2023/09/24 13:36:50;;;;;;;;;;;21.00;99.90;;;;;;4970230;28;19938;-32
2023/09/24 13:39:17;;;;;;;;;;;21.20;99.90;;;;;;4973629;28;19981;-31
2023/09/24 13:41:44;;;;;;;;;;;21.20;98.30;;;;;;4972617;28;19926;-31
2023/09/24 13:44:10;;;;;;;;;;;21.20;97.80;;;;;;4971858;28;19934;-31
2023/09/24 13:46:37;;;;;;;;;;;21.30;99.00;;;;;;4972268;28;19973;-31
2023/09/24 13:49:04;;;;;;;;;;;21.30;98.30;;;;;;4969330;28;20056;-32
2023/09/24 13:51:35;;;;;;;;;;;21.40;97.20;;;;;;4952593;29;19930;-31
2023/09/24 13:54:05;;;;;;;;;;;21.30;96.70;;;;;;4935244;29;19926;-31
2023/09/24 13:56:31;;;;;;;;;;;21.30;97.50;;;;;;4950864;28;19934;-31
2023/09/24 13:58:58;;;;;;;;;;;21.30;96.70;;;;;;4965215;28;19931;-31
2023/09/24 14:01:25;;;;;;;;;;;21.30;97.00;;;;;;4941348;28;19985;-32
2023/09/24 14:03:52;;;;;;;;;;;21.40;96.80;;;;;;4954305;29;19926;-31
2023/09/24 14:06:19;;;;;;;;;;;21.40;96.50;;;;;;4952871;29;19935;-31
2023/09/24 14:14:16;;;;;;;;;;;21.30;94.80;;;;;;4953168;29;19927;-31
2023/09/24 14:16:42;;;;;;;;;;;21.20;97.00;;;;;;4951535;29;19927;-31
2023/09/24 14:19:09;;;;;;;;;;;21.30;97.50;;;;;;4952207;29;20364;-32
2023/09/24 14:21:36;;;;;;;;;;;21.40;97.30;;;;;;4953036;29;19934;-31
2023/09/24 14:24:04;;;;;;;;;;;21.30;95.00;;;;;;4953942;29;19981;-32